Time;durP1;ratioP1;P1;durP2;ratioP2;P2;SDS_P1;SDS_P2;PMS_P1;PMS_P2;Temp;Humidity;BMP_temperature;BMP_pressure;BME280_temperature;BME280_humidity;BME280_pressure;Samples;Min_cycle;Max_cycle;Signal;HPM_P1;HPM_P2
2021/12/03 00:04:24;;;;;;;9.93;4.87;;;;;;;;;;10341710;28;20220;-71
2021/12/03 00:09:25;;;;;;;5.97;4.43;;;;;;;;;;10341239;28;20180;-70
2021/12/03 00:14:26;;;;;;;9.67;5.00;;;;;;;;;;10338717;28;20235;-71
2021/12/03 00:19:28;;;;;;;8.93;5.07;;;;;;;;;;10338717;28;20246;-71
2021/12/03 00:24:29;;;;;;;11.03;5.03;;;;;;;;;;10339584;28;20278;-71
2021/12/03 00:29:30;;;;;;;5.50;3.90;;;;;;;;;;10340787;28;20717;-70
2021/12/03 00:34:31;;;;;;;3.07;2.37;;;;;;;;;;10322869;28;20294;-71
2021/12/03 00:39:32;;;;;;;4.30;2.03;;;;;;;;;;10338285;28;20192;-71
2021/12/03 00:44:33;;;;;;;3.27;1.60;;;;;;;;;;10337047;28;20245;-70
2021/12/03 00:49:34;;;;;;;1.40;1.10;;;;;;;;;;10273252;28;20230;-71
2021/12/03 00:54:35;;;;;;;1.33;1.13;;;;;;;;;;10295009;28;20873;-70
2021/12/03 00:59:36;;;;;;;1.07;1.03;;;;;;;;;;10304681;28;21251;-72
2021/12/03 01:04:37;;;;;;;1.57;0.87;;;;;;;;;;10317903;28;20816;-73
2021/12/03 01:09:38;;;;;;;6.17;1.10;;;;;;;;;;10321145;28;20180;-71
2021/12/03 01:14:39;;;;;;;2.67;0.90;;;;;;;;;;10322486;28;20203;-73
2021/12/03 01:19:40;;;;;;;1.80;1.23;;;;;;;;;;10306741;28;20213;-72
2021/12/03 01:24:41;;;;;;;3.10;0.77;;;;;;;;;;10299149;28;20234;-72
2021/12/03 01:29:42;;;;;;;2.10;0.80;;;;;;;;;;10283260;28;20188;-72
2021/12/03 01:34:43;;;;;;;4.63;0.60;;;;;;;;;;10298602;28;20690;-72
2021/12/03 01:39:44;;;;;;;0.47;0.47;;;;;;;;;;10307546;28;20657;-72
2021/12/03 01:44:45;;;;;;;3.10;0.47;;;;;;;;;;10308660;28;20219;-72
2021/12/03 01:49:46;;;;;;;1.73;0.43;;;;;;;;;;10309976;28;20209;-72
2021/12/03 01:54:47;;;;;;;0.83;0.50;;;;;;;;;;10306915;28;20205;-71
2021/12/03 01:59:48;;;;;;;5.30;0.87;;;;;;;;;;10320593;28;20189;-72
2021/12/03 02:04:49;;;;;;;3.70;0.70;;;;;;;;;;10325224;28;20299;-72
2021/12/03 02:09:50;;;;;;;1.60;0.47;;;;;;;;;;10310408;28;20211;-71
2021/12/03 02:14:51;;;;;;;0.70;0.70;;;;;;;;;;10309264;28;20205;-72
2021/12/03 02:19:52;;;;;;;3.73;0.50;;;;;;;;;;10316898;28;20593;-72
2021/12/03 02:24:53;;;;;;;4.00;0.50;;;;;;;;;;10289146;28;20212;-73
2021/12/03 02:29:54;;;;;;;0.37;0.37;;;;;;;;;;10292290;28;20189;-72
2021/12/03 02:34:55;;;;;;;4.23;0.80;;;;;;;;;;10306185;28;20217;-72
2021/12/03 02:39:56;;;;;;;1.00;0.60;;;;;;;;;;10306319;28;20621;-71
2021/12/03 02:44:57;;;;;;;1.23;0.93;;;;;;;;;;10313428;28;20275;-72
2021/12/03 02:49:58;;;;;;;1.37;0.70;;;;;;;;;;10328075;28;20737;-71
2021/12/03 02:54:59;;;;;;;0.87;0.47;;;;;;;;;;10329547;28;20220;-71
2021/12/03 03:00:01;;;;;;;0.63;0.63;;;;;;;;;;10343209;28;20211;-71
2021/12/03 03:05:02;;;;;;;2.33;0.60;;;;;;;;;;10345480;28;21368;-71
2021/12/03 03:10:04;;;;;;;2.50;0.50;;;;;;;;;;10328700;28;20176;-71
2021/12/03 03:15:06;;;;;;;0.90;0.90;;;;;;;;;;10349152;28;20204;-71
2021/12/03 03:20:07;;;;;;;1.10;1.00;;;;;;;;;;10310488;28;20208;-72
2021/12/03 03:25:11;;;;;;;2.80;1.00;;;;;;;;;;10327193;28;20229;-70
2021/12/03 03:30:14;;;;;;;2.50;1.40;;;;;;;;;;10320776;28;20698;-70
2021/12/03 03:35:15;;;;;;;1.43;1.07;;;;;;;;;;10325696;28;20216;-70
2021/12/03 03:40:16;;;;;;;2.40;1.13;;;;;;;;;;10342488;28;20188;-71
2021/12/03 03:45:19;;;;;;;3.70;1.60;;;;;;;;;;10342711;28;20218;-71
2021/12/03 03:50:21;;;;;;;2.07;1.40;;;;;;;;;;10324682;28;20299;-70
2021/12/03 03:55:23;;;;;;;3.33;1.53;;;;;;;;;;10341334;28;20208;-71
2021/12/03 04:00:31;;;;;;;2.17;1.47;;;;;;;;;;10320640;28;20660;-71
2021/12/03 04:05:33;;;;;;;1.33;1.30;;;;;;;;;;10337382;28;20251;-71
2021/12/03 04:10:34;;;;;;;2.00;1.40;;;;;;;;;;10343313;28;20215;-71
2021/12/03 04:15:37;;;;;;;1.70;1.60;;;;;;;;;;10340414;28;20714;-70
2021/12/03 04:20:38;;;;;;;3.03;2.40;;;;;;;;;;10318135;28;20184;-71
2021/12/03 04:25:39;;;;;;;2.47;2.27;;;;;;;;;;10324781;28;20218;-71
2021/12/03 04:30:40;;;;;;;2.43;2.07;;;;;;;;;;10337893;28;20223;-70
2021/12/03 04:35:41;;;;;;;2.67;2.47;;;;;;;;;;10340281;28;20208;-71
2021/12/03 04:40:42;;;;;;;6.53;2.60;;;;;;;;;;10320427;28;20666;-72
2021/12/03 04:45:43;;;;;;;3.07;2.77;;;;;;;;;;10340090;28;20256;-70
2021/12/03 04:50:46;;;;;;;2.93;2.73;;;;;;;;;;10322685;28;20203;-71
2021/12/03 04:55:47;;;;;;;4.60;2.77;;;;;;;;;;10336278;28;20195;-72
2021/12/03 05:00:52;;;;;;;10.00;2.83;;;;;;;;;;10339878;28;20271;-71
2021/12/03 05:05:55;;;;;;;3.10;2.57;;;;;;;;;;10335458;28;20208;-71
2021/12/03 05:10:56;;;;;;;2.87;2.63;;;;;;;;;;10322261;28;20184;-71
2021/12/03 05:15:58;;;;;;;3.83;2.27;;;;;;;;;;10343922;28;20497;-71
2021/12/03 05:21:00;;;;;;;3.13;2.90;;;;;;;;;;10349016;28;21162;-71
2021/12/03 05:26:02;;;;;;;5.83;3.13;;;;;;;;;;10348537;28;20216;-71
2021/12/03 05:31:03;;;;;;;3.33;2.50;;;;;;;;;;10343000;28;20215;-71
2021/12/03 05:36:04;;;;;;;2.43;2.27;;;;;;;;;;10350330;28;20212;-71
2021/12/03 05:41:05;;;;;;;3.10;2.80;;;;;;;;;;10326286;28;20188;-71
2021/12/03 05:46:06;;;;;;;2.13;1.93;;;;;;;;;;10342855;28;20217;-71
2021/12/03 05:51:07;;;;;;;4.13;1.90;;;;;;;;;;10328284;28;20188;-71
2021/12/03 05:56:08;;;;;;;2.83;2.50;;;;;;;;;;10327913;28;20583;-71
2021/12/03 06:01:09;;;;;;;2.00;1.90;;;;;;;;;;10330192;28;20215;-71
2021/12/03 06:06:10;;;;;;;10.67;2.87;;;;;;;;;;10323502;28;20212;-71
2021/12/03 06:11:11;;;;;;;4.37;2.20;;;;;;;;;;10335583;28;20181;-71
2021/12/03 06:16:13;;;;;;;2.37;2.20;;;;;;;;;;10320024;28;20209;-73
2021/12/03 06:21:17;;;;;;;2.73;2.40;;;;;;;;;;10341146;28;20720;-73
2021/12/03 06:26:18;;;;;;;3.23;2.43;;;;;;;;;;10346223;28;20222;-73
2021/12/03 06:31:19;;;;;;;2.87;1.80;;;;;;;;;;10340878;28;20303;-74
2021/12/03 06:36:20;;;;;;;5.03;2.37;;;;;;;;;;10344083;28;20200;-73
2021/12/03 06:41:21;;;;;;;3.53;2.20;;;;;;;;;;10306297;28;20192;-73
2021/12/03 06:46:22;;;;;;;5.13;2.47;;;;;;;;;;10326807;28;20219;-75
2021/12/03 06:51:23;;;;;;;6.10;2.77;;;;;;;;;;10346001;28;20204;-73
2021/12/03 06:56:32;;;;;;;3.30;2.00;;;;;;;;;;10325892;28;20613;-73
2021/12/03 07:01:33;;;;;;;6.23;2.63;;;;;;;;;;10346858;28;20196;-73
2021/12/03 07:06:34;;;;;;;3.83;2.70;;;;;;;;;;10346632;28;20254;-74
2021/12/03 07:11:35;;;;;;;3.70;2.70;;;;;;;;;;10319332;28;20200;-73
2021/12/03 07:16:36;;;;;;;5.67;4.37;;;;;;;;;;10345109;28;20338;-73
2021/12/03 07:21:37;;;;;;;11.47;7.00;;;;;;;;;;10331220;28;20189;-73
2021/12/03 07:26:38;;;;;;;5.73;5.10;;;;;;;;;;10339920;28;20274;-74
2021/12/03 07:31:39;;;;;;;7.03;3.57;;;;;;;;;;10324719;28;20939;-74
2021/12/03 07:36:41;;;;;;;6.13;3.97;;;;;;;;;;10335899;28;20227;-74
2021/12/03 07:41:42;;;;;;;4.87;4.07;;;;;;;;;;10342336;28;20183;-74
2021/12/03 07:46:43;;;;;;;5.30;3.27;;;;;;;;;;10345773;28;20222;-73
2021/12/03 07:51:44;;;;;;;3.00;2.70;;;;;;;;;;10338209;28;20199;-74
2021/12/03 07:56:45;;;;;;;3.83;3.20;;;;;;;;;;10333236;28;20687;-74
2021/12/03 08:01:47;;;;;;;5.13;3.97;;;;;;;;;;10335227;28;20210;-74
2021/12/03 08:06:53;;;;;;;4.77;3.23;;;;;;;;;;10315420;28;20197;-73
2021/12/03 08:11:54;;;;;;;4.67;3.30;;;;;;;;;;10327624;28;20225;-74
2021/12/03 08:16:55;;;;;;;8.10;3.73;;;;;;;;;;10312902;28;20839;-73
2021/12/03 08:21:56;;;;;;;4.43;3.60;;;;;;;;;;10329444;28;20196;-74
2021/12/03 08:26:57;;;;;;;11.00;6.33;;;;;;;;;;10334045;28;20307;-73
2021/12/03 08:31:59;;;;;;;4.83;3.60;;;;;;;;;;10316131;28;20302;-73
2021/12/03 08:37:00;;;;;;;4.15;3.72;;;;;;;;;;10334238;28;20211;-73
2021/12/03 08:42:01;;;;;;;8.43;5.60;;;;;;;;;;10339927;28;20644;-73
2021/12/03 08:47:04;;;;;;;6.53;4.43;;;;;;;;;;10324082;28;20659;-73
2021/12/03 08:57:26;;;;;;;7.30;3.25;;;;;;;;;;10336937;28;20930;-73
2021/12/03 09:02:27;;;;;;;9.02;3.92;;;;;;;;;;10312356;28;20299;-73
2021/12/03 09:07:29;;;;;;;5.20;3.55;;;;;;;;;;10323373;28;21070;-73
2021/12/03 09:12:30;;;;;;;3.88;3.15;;;;;;;;;;10310568;28;20173;-73
2021/12/03 09:22:51;;;;;;;4.40;2.67;;;;;;;;;;10284539;28;20184;-73
2021/12/03 09:27:52;;;;;;;3.83;2.50;;;;;;;;;;10292424;28;20208;-74
2021/12/03 09:32:55;;;;;;;3.22;2.75;;;;;;;;;;10276728;28;20216;-72
2021/12/03 09:37:57;;;;;;;3.70;2.40;;;;;;;;;;10280512;28;20696;-74
2021/12/03 09:42:58;;;;;;;3.50;2.75;;;;;;;;;;10299314;28;20707;-73
2021/12/03 09:48:04;;;;;;;4.60;2.42;;;;;;;;;;10294570;28;20259;-73
2021/12/03 09:53:21;;;;;;;3.58;2.13;;;;;;;;;;10282394;28;20192;-73
2021/12/03 09:59:05;;;;;;;2.42;2.03;;;;;;;;;;10295146;28;20243;-73
2021/12/03 10:04:17;;;;;;;2.53;2.38;;;;;;;;;;10331453;28;20295;-74
2021/12/03 10:15:10;;;;;;;3.50;3.30;;;;;;;;;;10350195;28;20648;-73
2021/12/03 10:20:24;;;;;;;3.70;3.30;;;;;;;;;;10333969;28;20696;-73
2021/12/03 10:26:11;;;;;;;4.25;3.13;;;;;;;;;;10317464;28;20234;-73
2021/12/03 10:41:28;;;;;;;4.63;4.13;;;;;;;;;;10309066;28;20760;-74
2021/12/03 10:46:58;;;;;;;5.43;3.78;;;;;;;;;;10320439;28;20236;-74
2021/12/03 11:03:10;;;;;;;9.40;4.70;;;;;;;;;;10339030;28;20311;-74
2021/12/03 11:13:13;;;;;;;6.28;4.85;;;;;;;;;;10333853;28;20190;-74
2021/12/03 11:18:46;;;;;;;4.20;3.80;;;;;;;;;;10323369;28;20251;-75
2021/12/03 11:25:51;;;;;;;4.50;4.07;;;;;;;;;;10313371;28;20211;-75
2021/12/03 11:40:01;;;;;;;6.30;5.15;;;;;;;;;;10315868;28;20189;-74
2021/12/03 12:29:43;;;;;;;5.75;4.80;;;;;;;;;;10247452;28;20200;-75
2021/12/03 12:44:58;;;;;;;7.85;5.15;;;;;;;;;;10316422;28;20212;-75
2021/12/03 13:11:52;;;;;;;4.15;3.90;;;;;;;;;;10336993;28;20295;-75
2021/12/03 14:10:10;;;;;;;3.22;2.92;;;;;;;;;;10358922;28;20177;-74
2021/12/03 14:37:10;;;;;;;3.67;3.47;;;;;;;;;;10338636;28;20553;-76
2021/12/03 14:58:28;;;;;;;8.02;3.63;;;;;;;;;;10318818;28;20193;-74
2021/12/03 15:03:47;;;;;;;3.83;3.53;;;;;;;;;;10337554;28;20223;-73
2021/12/03 15:08:54;;;;;;;5.75;4.40;;;;;;;;;;10312198;28;20269;-74
2021/12/03 15:19:30;;;;;;;4.57;4.18;;;;;;;;;;10340199;28;20211;-74
2021/12/03 15:35:26;;;;;;;5.03;3.55;;;;;;;;;;10344629;28;20307;-73
2021/12/03 15:40:57;;;;;;;3.00;2.80;;;;;;;;;;10324246;28;20203;-72
2021/12/03 16:07:18;;;;;;;3.80;1.55;;;;;;;;;;10340301;28;20340;-74
2021/12/03 16:12:31;;;;;;;2.85;1.58;;;;;;;;;;10335811;28;20180;-74
2021/12/03 16:23:03;;;;;;;1.58;1.48;;;;;;;;;;10338831;28;20200;-74
2021/12/03 16:43:33;;;;;;;4.68;2.00;;;;;;;;;;10337749;28;20215;-74
2021/12/03 16:44:45;;;;;;;3.63;2.17;;;;;;;;;;10322448;28;20231;-74
2021/12/03 16:55:06;;;;;;;2.47;2.00;;;;;;;;;;10317303;28;20201;-74
2021/12/03 17:00:18;;;;;;;5.07;1.70;;;;;;;;;;10344283;28;20703;-74
2021/12/03 17:05:58;;;;;;;5.00;1.60;;;;;;;;;;10330149;28;20216;-75
2021/12/03 17:11:23;;;;;;;2.03;1.80;;;;;;;;;;10345410;28;20188;-74
2021/12/03 17:49:03;;;;;;;4.10;3.30;;;;;;;;;;10351538;28;20220;-74
2021/12/03 17:58:58;;;;;;;6.93;3.88;;;;;;;;;;10308279;28;20683;-75
2021/12/03 18:04:19;;;;;;;7.18;4.30;;;;;;;;;;10330068;28;20230;-75
2021/12/03 18:47:02;;;;;;;2.50;2.22;;;;;;;;;;10345302;28;20223;-76
2021/12/03 18:52:10;;;;;;;2.85;1.92;;;;;;;;;;10346832;28;20207;-75
2021/12/03 18:57:15;;;;;;;4.15;2.85;;;;;;;;;;10340940;28;20204;-74
2021/12/03 19:02:16;;;;;;;2.33;2.05;;;;;;;;;;10344104;28;20209;-74
2021/12/03 19:07:26;;;;;;;3.55;3.25;;;;;;;;;;10326676;28;20216;-74
2021/12/03 19:12:29;;;;;;;3.15;2.83;;;;;;;;;;10327508;28;20195;-74
2021/12/03 19:17:36;;;;;;;4.32;2.88;;;;;;;;;;10343972;28;20234;-74
2021/12/03 19:22:37;;;;;;;3.58;2.35;;;;;;;;;;10325272;28;20196;-73
2021/12/03 19:27:38;;;;;;;2.85;2.70;;;;;;;;;;10341372;28;20215;-74
2021/12/03 19:32:39;;;;;;;2.88;2.63;;;;;;;;;;10322668;28;20211;-74
2021/12/03 19:37:40;;;;;;;2.92;2.15;;;;;;;;;;10343530;28;20211;-73
2021/12/03 19:42:50;;;;;;;2.13;2.00;;;;;;;;;;10325238;28;20272;-74
2021/12/03 19:48:32;;;;;;;2.35;2.03;;;;;;;;;;10336097;28;20303;-74
2021/12/03 19:53:26;;;;;;;2.00;1.90;;;;;;;;;;10333110;28;20216;-74
2021/12/03 19:58:28;;;;;;;2.08;1.98;;;;;;;;;;10339376;28;20245;-74
2021/12/03 20:03:29;;;;;;;2.20;2.10;;;;;;;;;;10340418;28;20212;-74
2021/12/03 20:08:30;;;;;;;2.38;2.17;;;;;;;;;;10306537;28;21095;-75
2021/12/03 20:13:31;;;;;;;1.88;1.77;;;;;;;;;;10335814;28;20187;-74
2021/12/03 20:18:41;;;;;;;1.98;1.88;;;;;;;;;;10320412;28;20203;-74
2021/12/03 20:23:54;;;;;;;3.60;2.50;;;;;;;;;;10339716;28;20223;-74
2021/12/03 20:39:56;;;;;;;2.95;2.75;;;;;;;;;;10215158;28;20238;-73
2021/12/03 21:11:36;;;;;;;3.25;2.08;;;;;;;;;;10252531;28;20303;-74
2021/12/03 21:17:02;;;;;;;3.10;2.90;;;;;;;;;;10320010;28;20897;-74
2021/12/03 21:22:09;;;;;;;4.00;2.67;;;;;;;;;;10339786;28;20187;-74
2021/12/03 21:27:19;;;;;;;2.35;2.25;;;;;;;;;;10322536;28;20212;-74
2021/12/03 21:42:47;;;;;;;2.97;2.78;;;;;;;;;;10329319;28;20503;-74
2021/12/03 21:47:48;;;;;;;2.90;2.80;;;;;;;;;;10343908;28;20225;-73
2021/12/03 21:52:49;;;;;;;3.05;2.83;;;;;;;;;;10339144;28;21221;-74
2021/12/03 21:57:53;;;;;;;3.08;2.88;;;;;;;;;;10349912;28;20697;-74
2021/12/03 22:02:54;;;;;;;3.38;3.17;;;;;;;;;;10331940;28;20216;-74
2021/12/03 22:07:55;;;;;;;3.72;3.30;;;;;;;;;;10345931;28;20208;-73
2021/12/03 22:12:56;;;;;;;3.20;3.10;;;;;;;;;;10331754;28;20869;-74
2021/12/03 22:17:57;;;;;;;3.45;3.28;;;;;;;;;;10329201;28;20234;-75
2021/12/03 22:22:58;;;;;;;6.68;3.92;;;;;;;;;;10332036;28;20216;-74
2021/12/03 22:27:59;;;;;;;2.95;2.75;;;;;;;;;;10344697;28;20305;-74
2021/12/03 22:33:00;;;;;;;3.30;3.15;;;;;;;;;;10343304;28;20243;-73
2021/12/03 22:38:02;;;;;;;3.67;3.38;;;;;;;;;;10329376;28;20214;-76
2021/12/03 22:43:03;;;;;;;3.28;2.97;;;;;;;;;;10330642;28;20534;-76
2021/12/03 22:48:22;;;;;;;3.05;2.95;;;;;;;;;;10323790;28;20570;-76
2021/12/03 22:53:23;;;;;;;4.22;2.80;;;;;;;;;;10324430;28;20199;-77
2021/12/03 22:58:24;;;;;;;2.92;2.72;;;;;;;;;;10325148;28;20191;-76
2021/12/03 23:03:26;;;;;;;3.03;2.70;;;;;;;;;;10329669;28;20216;-76
2021/12/03 23:08:27;;;;;;;3.40;2.90;;;;;;;;;;10347205;28;20211;-77
2021/12/03 23:13:29;;;;;;;3.47;3.17;;;;;;;;;;10346762;28;20180;-77
2021/12/03 23:18:30;;;;;;;3.50;3.28;;;;;;;;;;10314164;28;20278;-76
2021/12/03 23:23:31;;;;;;;3.45;3.17;;;;;;;;;;10342370;28;20242;-76
2021/12/03 23:28:32;;;;;;;3.90;3.28;;;;;;;;;;10328225;28;20204;-76
2021/12/03 23:33:34;;;;;;;3.28;3.17;;;;;;;;;;10344119;28;20611;-77
